Weather at Farewell Airport

Public forecast

Using degrees Fahrenheit for public forecast. Weather courtesy of forecast.io.

Closest aviation weather report (METAR) to Farewell Airport

Report is more than 6 hours old.

Closest report is Farewell Lake Seaplane Base, 7.7 nm (14.3 km) ENE. Retrieved 2014/04/19 20:49 UTC (7 years ago):

PAFK 192049Z 00000KT 25SM FEW080 SCT200 11/M05 A2957 RMK EST PASS OPEN NOSPECI

Closest aviation forecast (TAF) to Farewell Airport

Closest forecast is McGrath Airport, 54.1 nm (100.3 km) WNW. Retrieved 2021/06/20 06:24 UTC (3 hours ago):

TAF PAMC 200523Z 2006/2106 25005KT P6SM -SHRA VCTS FEW035 BKN050CB BKN100 FM201000 VRB05KT P6SM -SHRA SCT025 OVC050 FM202100 19004KT P6SM VCSH BKN050 BKN100 AMD NOT SKED